sensor_id;sensor_type;location;lat;lon;timestamp;P1;durP1;ratioP1;P2;durP2;ratioP2
50709;SDS011;37033;49.994;21.992;2024-03-25T00:00:22;25.40;;;14.20;;
50709;SDS011;37033;49.994;21.992;2024-03-25T00:03:13;26.80;;;13.10;;
50709;SDS011;37033;49.994;21.992;2024-03-25T00:05:44;26.10;;;12.90;;
50709;SDS011;37033;49.994;21.992;2024-03-25T00:08:14;22.50;;;13.80;;
50709;SDS011;37033;49.994;21.992;2024-03-25T00:10:44;23.10;;;12.90;;
50709;SDS011;37033;49.994;21.992;2024-03-25T00:13:14;28.60;;;15.20;;
50709;SDS011;37033;49.994;21.992;2024-03-25T00:15:43;27.00;;;14.40;;
50709;SDS011;37033;49.994;21.992;2024-03-25T00:18:13;28.50;;;13.80;;
50709;SDS011;37033;49.994;21.992;2024-03-25T00:20:43;28.00;;;14.90;;
50709;SDS011;37033;49.994;21.992;2024-03-25T00:23:13;29.30;;;15.10;;
50709;SDS011;37033;49.994;21.992;2024-03-25T00:25:43;27.20;;;14.50;;
50709;SDS011;37033;49.994;21.992;2024-03-25T00:28:13;26.20;;;13.60;;
50709;SDS011;37033;49.994;21.992;2024-03-25T00:30:43;30.30;;;15.20;;
50709;SDS011;37033;49.994;21.992;2024-03-25T00:33:13;26.50;;;14.80;;
50709;SDS011;37033;49.994;21.992;2024-03-25T00:35:44;27.30;;;14.10;;
50709;SDS011;37033;49.994;21.992;2024-03-25T00:38:14;28.30;;;14.60;;
50709;SDS011;37033;49.994;21.992;2024-03-25T00:40:44;27.20;;;14.40;;
50709;SDS011;37033;49.994;21.992;2024-03-25T00:43:14;26.70;;;13.50;;
50709;SDS011;37033;49.994;21.992;2024-03-25T00:45:45;30.80;;;14.60;;
50709;SDS011;37033;49.994;21.992;2024-03-25T00:48:15;25.60;;;13.00;;
50709;SDS011;37033;49.994;21.992;2024-03-25T00:50:45;25.40;;;13.00;;
50709;SDS011;37033;49.994;21.992;2024-03-25T00:53:15;23.30;;;13.20;;
50709;SDS011;37033;49.994;21.992;2024-03-25T00:55:45;24.30;;;13.70;;
50709;SDS011;37033;49.994;21.992;2024-03-25T00:58:15;22.10;;;13.10;;
50709;SDS011;37033;49.994;21.992;2024-03-25T01:00:45;28.30;;;13.90;;
50709;SDS011;37033;49.994;21.992;2024-03-25T01:03:15;21.50;;;13.10;;
50709;SDS011;37033;49.994;21.992;2024-03-25T01:05:45;22.60;;;13.00;;
50709;SDS011;37033;49.994;21.992;2024-03-25T01:08:15;25.40;;;13.30;;
50709;SDS011;37033;49.994;21.992;2024-03-25T01:10:45;25.20;;;14.00;;
50709;SDS011;37033;49.994;21.992;2024-03-25T01:13:15;23.70;;;14.00;;
50709;SDS011;37033;49.994;21.992;2024-03-25T01:15:45;27.80;;;13.20;;
50709;SDS011;37033;49.994;21.992;2024-03-25T01:18:15;24.60;;;13.70;;
50709;SDS011;37033;49.994;21.992;2024-03-25T01:20:45;26.50;;;14.60;;
50709;SDS011;37033;49.994;21.992;2024-03-25T01:23:15;25.40;;;13.40;;
50709;SDS011;37033;49.994;21.992;2024-03-25T01:25:45;26.70;;;14.00;;
50709;SDS011;37033;49.994;21.992;2024-03-25T01:28:15;25.10;;;13.40;;
50709;SDS011;37033;49.994;21.992;2024-03-25T01:30:45;29.50;;;15.20;;
50709;SDS011;37033;49.994;21.992;2024-03-25T01:33:15;23.60;;;14.60;;
50709;SDS011;37033;49.994;21.992;2024-03-25T01:35:45;23.80;;;14.10;;
50709;SDS011;37033;49.994;21.992;2024-03-25T01:38:15;23.90;;;14.00;;
50709;SDS011;37033;49.994;21.992;2024-03-25T01:40:45;22.30;;;12.70;;
50709;SDS011;37033;49.994;21.992;2024-03-25T01:43:15;24.20;;;13.70;;
50709;SDS011;37033;49.994;21.992;2024-03-25T01:45:45;26.50;;;15.30;;
50709;SDS011;37033;49.994;21.992;2024-03-25T01:48:16;25.10;;;14.50;;
50709;SDS011;37033;49.994;21.992;2024-03-25T01:50:46;28.60;;;14.60;;
50709;SDS011;37033;49.994;21.992;2024-03-25T01:53:16;26.70;;;15.40;;
50709;SDS011;37033;49.994;21.992;2024-03-25T01:55:46;28.50;;;15.60;;
50709;SDS011;37033;49.994;21.992;2024-03-25T01:58:17;24.50;;;13.30;;
50709;SDS011;37033;49.994;21.992;2024-03-25T02:00:46;27.80;;;15.40;;
50709;SDS011;37033;49.994;21.992;2024-03-25T02:03:18;23.80;;;13.40;;
50709;SDS011;37033;49.994;21.992;2024-03-25T02:05:48;25.20;;;13.70;;
50709;SDS011;37033;49.994;21.992;2024-03-25T02:08:24;24.50;;;13.10;;
50709;SDS011;37033;49.994;21.992;2024-03-25T02:10:56;24.40;;;13.70;;
50709;SDS011;37033;49.994;21.992;2024-03-25T02:13:26;27.10;;;13.80;;
50709;SDS011;37033;49.994;21.992;2024-03-25T02:15:56;27.20;;;14.80;;
50709;SDS011;37033;49.994;21.992;2024-03-25T02:18:26;29.90;;;14.30;;
50709;SDS011;37033;49.994;21.992;2024-03-25T02:20:58;20.30;;;12.60;;
50709;SDS011;37033;49.994;21.992;2024-03-25T02:23:28;24.00;;;13.80;;
50709;SDS011;37033;49.994;21.992;2024-03-25T02:25:58;26.20;;;14.20;;
50709;SDS011;37033;49.994;21.992;2024-03-25T02:28:28;27.10;;;13.10;;
50709;SDS011;37033;49.994;21.992;2024-03-25T02:30:58;23.20;;;13.00;;
50709;SDS011;37033;49.994;21.992;2024-03-25T02:33:28;25.20;;;13.70;;
50709;SDS011;37033;49.994;21.992;2024-03-25T02:35:58;28.30;;;13.10;;
50709;SDS011;37033;49.994;21.992;2024-03-25T02:38:28;24.50;;;13.90;;
50709;SDS011;37033;49.994;21.992;2024-03-25T02:40:59;31.00;;;14.70;;
50709;SDS011;37033;49.994;21.992;2024-03-25T02:43:30;27.10;;;13.80;;
50709;SDS011;37033;49.994;21.992;2024-03-25T02:46:00;25.80;;;15.00;;
50709;SDS011;37033;49.994;21.992;2024-03-25T02:48:30;26.30;;;14.70;;
50709;SDS011;37033;49.994;21.992;2024-03-25T02:51:00;21.20;;;12.30;;
50709;SDS011;37033;49.994;21.992;2024-03-25T02:53:30;25.00;;;14.30;;
50709;SDS011;37033;49.994;21.992;2024-03-25T02:56:00;22.60;;;13.50;;
50709;SDS011;37033;49.994;21.992;2024-03-25T02:58:30;23.50;;;12.30;;
50709;SDS011;37033;49.994;21.992;2024-03-25T03:01:00;23.40;;;12.50;;
50709;SDS011;37033;49.994;21.992;2024-03-25T03:03:30;19.00;;;11.50;;
50709;SDS011;37033;49.994;21.992;2024-03-25T03:06:00;21.60;;;12.00;;
50709;SDS011;37033;49.994;21.992;2024-03-25T03:08:30;19.80;;;11.60;;
50709;SDS011;37033;49.994;21.992;2024-03-25T03:11:00;18.30;;;11.40;;
50709;SDS011;37033;49.994;21.992;2024-03-25T03:13:30;22.20;;;12.20;;
50709;SDS011;37033;49.994;21.992;2024-03-25T03:16:00;18.00;;;11.70;;
50709;SDS011;37033;49.994;21.992;2024-03-25T03:18:30;17.60;;;10.80;;
50709;SDS011;37033;49.994;21.992;2024-03-25T03:21:00;17.80;;;10.40;;
50709;SDS011;37033;49.994;21.992;2024-03-25T03:23:30;15.10;;;10.10;;
50709;SDS011;37033;49.994;21.992;2024-03-25T03:26:00;20.80;;;10.70;;
50709;SDS011;37033;49.994;21.992;2024-03-25T03:28:30;15.80;;;10.40;;
50709;SDS011;37033;49.994;21.992;2024-03-25T03:31:00;17.70;;;11.10;;
50709;SDS011;37033;49.994;21.992;2024-03-25T03:33:30;15.70;;;9.50;;
50709;SDS011;37033;49.994;21.992;2024-03-25T03:36:00;20.70;;;11.30;;
50709;SDS011;37033;49.994;21.992;2024-03-25T03:38:30;14.60;;;10.00;;
50709;SDS011;37033;49.994;21.992;2024-03-25T03:41:01;15.50;;;9.70;;
50709;SDS011;37033;49.994;21.992;2024-03-25T03:43:31;21.30;;;11.10;;
50709;SDS011;37033;49.994;21.992;2024-03-25T03:46:01;14.60;;;9.90;;
50709;SDS011;37033;49.994;21.992;2024-03-25T03:48:32;20.20;;;10.90;;
50709;SDS011;37033;49.994;21.992;2024-03-25T03:51:03;14.60;;;9.70;;
50709;SDS011;37033;49.994;21.992;2024-03-25T03:53:34;16.80;;;9.70;;
50709;SDS011;37033;49.994;21.992;2024-03-25T03:56:04;15.80;;;10.50;;
50709;SDS011;37033;49.994;21.992;2024-03-25T03:58:35;14.10;;;9.40;;
50709;SDS011;37033;49.994;21.992;2024-03-25T04:01:06;15.00;;;9.70;;
50709;SDS011;37033;49.994;21.992;2024-03-25T04:03:44;14.10;;;9.50;;
50709;SDS011;37033;49.994;21.992;2024-03-25T04:06:14;16.70;;;9.20;;
50709;SDS011;37033;49.994;21.992;2024-03-25T04:08:44;13.80;;;8.30;;
50709;SDS011;37033;49.994;21.992;2024-03-25T04:11:14;14.70;;;8.20;;
50709;SDS011;37033;49.994;21.992;2024-03-25T04:13:45;13.60;;;8.90;;
50709;SDS011;37033;49.994;21.992;2024-03-25T04:16:16;16.00;;;9.20;;
50709;SDS011;37033;49.994;21.992;2024-03-25T04:18:47;15.40;;;8.90;;
50709;SDS011;37033;49.994;21.992;2024-03-25T04:21:17;15.20;;;9.00;;
50709;SDS011;37033;49.994;21.992;2024-03-25T04:23:47;13.30;;;8.60;;
50709;SDS011;37033;49.994;21.992;2024-03-25T04:26:17;12.60;;;8.50;;
50709;SDS011;37033;49.994;21.992;2024-03-25T04:28:47;15.10;;;8.70;;
50709;SDS011;37033;49.994;21.992;2024-03-25T04:31:17;13.50;;;8.20;;
50709;SDS011;37033;49.994;21.992;2024-03-25T04:33:47;14.50;;;8.50;;
50709;SDS011;37033;49.994;21.992;2024-03-25T04:36:17;15.00;;;9.10;;
50709;SDS011;37033;49.994;21.992;2024-03-25T04:38:47;11.00;;;8.10;;
50709;SDS011;37033;49.994;21.992;2024-03-25T04:41:17;13.20;;;8.10;;
50709;SDS011;37033;49.994;21.992;2024-03-25T04:43:48;10.90;;;8.20;;
50709;SDS011;37033;49.994;21.992;2024-03-25T04:46:18;13.40;;;8.70;;
50709;SDS011;37033;49.994;21.992;2024-03-25T04:48:48;11.40;;;8.20;;
50709;SDS011;37033;49.994;21.992;2024-03-25T04:51:18;15.10;;;9.40;;
50709;SDS011;37033;49.994;21.992;2024-03-25T04:53:48;14.10;;;8.80;;
50709;SDS011;37033;49.994;21.992;2024-03-25T04:56:18;13.70;;;9.50;;
50709;SDS011;37033;49.994;21.992;2024-03-25T04:58:48;15.60;;;8.80;;
50709;SDS011;37033;49.994;21.992;2024-03-25T05:01:18;19.80;;;10.50;;
50709;SDS011;37033;49.994;21.992;2024-03-25T05:03:48;17.00;;;10.90;;
50709;SDS011;37033;49.994;21.992;2024-03-25T05:06:18;22.70;;;11.40;;
50709;SDS011;37033;49.994;21.992;2024-03-25T05:08:48;23.70;;;11.40;;
50709;SDS011;37033;49.994;21.992;2024-03-25T05:11:18;27.80;;;12.80;;
50709;SDS011;37033;49.994;21.992;2024-03-25T05:13:49;27.80;;;11.20;;
50709;SDS011;37033;49.994;21.992;2024-03-25T05:16:18;25.50;;;10.80;;
50709;SDS011;37033;49.994;21.992;2024-03-25T05:18:48;19.00;;;9.20;;
50709;SDS011;37033;49.994;21.992;2024-03-25T05:21:18;21.00;;;10.60;;
50709;SDS011;37033;49.994;21.992;2024-03-25T05:23:48;20.60;;;10.80;;
50709;SDS011;37033;49.994;21.992;2024-03-25T05:26:18;18.10;;;9.70;;
50709;SDS011;37033;49.994;21.992;2024-03-25T05:28:53;15.80;;;9.50;;
50709;SDS011;37033;49.994;21.992;2024-03-25T05:31:23;18.80;;;10.20;;
50709;SDS011;37033;49.994;21.992;2024-03-25T05:33:53;19.90;;;10.80;;
50709;SDS011;37033;49.994;21.992;2024-03-25T05:36:23;13.10;;;9.20;;
50709;SDS011;37033;49.994;21.992;2024-03-25T05:38:53;16.60;;;10.10;;
50709;SDS011;37033;49.994;21.992;2024-03-25T05:41:24;15.40;;;9.50;;
50709;SDS011;37033;49.994;21.992;2024-03-25T05:43:54;26.50;;;16.20;;
50709;SDS011;37033;49.994;21.992;2024-03-25T05:46:24;24.00;;;15.00;;
50709;SDS011;37033;49.994;21.992;2024-03-25T05:48:54;26.30;;;15.80;;
50709;SDS011;37033;49.994;21.992;2024-03-25T05:51:24;17.50;;;12.30;;
50709;SDS011;37033;49.994;21.992;2024-03-25T05:53:54;14.40;;;10.70;;
50709;SDS011;37033;49.994;21.992;2024-03-25T05:56:24;17.10;;;10.00;;
50709;SDS011;37033;49.994;21.992;2024-03-25T05:58:57;12.70;;;9.00;;
50709;SDS011;37033;49.994;21.992;2024-03-25T06:01:28;13.60;;;9.30;;
50709;SDS011;37033;49.994;21.992;2024-03-25T06:03:58;16.10;;;9.30;;
50709;SDS011;37033;49.994;21.992;2024-03-25T06:06:28;14.30;;;8.50;;
50709;SDS011;37033;49.994;21.992;2024-03-25T06:08:58;16.10;;;9.40;;
50709;SDS011;37033;49.994;21.992;2024-03-25T06:11:28;16.90;;;9.80;;
50709;SDS011;37033;49.994;21.992;2024-03-25T06:13:58;16.40;;;10.70;;
50709;SDS011;37033;49.994;21.992;2024-03-25T06:16:28;16.40;;;10.10;;
50709;SDS011;37033;49.994;21.992;2024-03-25T06:18:58;18.60;;;10.70;;
50709;SDS011;37033;49.994;21.992;2024-03-25T06:21:28;16.30;;;9.30;;
50709;SDS011;37033;49.994;21.992;2024-03-25T06:23:58;14.60;;;9.20;;
50709;SDS011;37033;49.994;21.992;2024-03-25T06:26:28;10.70;;;7.70;;
50709;SDS011;37033;49.994;21.992;2024-03-25T06:28:58;12.90;;;7.80;;
50709;SDS011;37033;49.994;21.992;2024-03-25T06:31:28;11.60;;;7.90;;
50709;SDS011;37033;49.994;21.992;2024-03-25T06:34:12;13.80;;;7.20;;
50709;SDS011;37033;49.994;21.992;2024-03-25T06:36:44;14.00;;;7.90;;
50709;SDS011;37033;49.994;21.992;2024-03-25T06:39:15;11.50;;;8.00;;
50709;SDS011;37033;49.994;21.992;2024-03-25T06:41:46;10.70;;;7.60;;
50709;SDS011;37033;49.994;21.992;2024-03-25T06:44:16;10.80;;;7.20;;
50709;SDS011;37033;49.994;21.992;2024-03-25T06:46:46;11.60;;;8.30;;
50709;SDS011;37033;49.994;21.992;2024-03-25T06:49:16;9.90;;;7.30;;
50709;SDS011;37033;49.994;21.992;2024-03-25T06:51:45;14.20;;;8.40;;
50709;SDS011;37033;49.994;21.992;2024-03-25T06:54:15;14.80;;;8.20;;
50709;SDS011;37033;49.994;21.992;2024-03-25T06:56:45;16.70;;;8.40;;
50709;SDS011;37033;49.994;21.992;2024-03-25T06:59:17;15.60;;;9.30;;
50709;SDS011;37033;49.994;21.992;2024-03-25T07:01:48;12.20;;;8.00;;
50709;SDS011;37033;49.994;21.992;2024-03-25T07:04:18;12.80;;;7.80;;
50709;SDS011;37033;49.994;21.992;2024-03-25T07:06:48;12.70;;;7.40;;
50709;SDS011;37033;49.994;21.992;2024-03-25T07:09:18;10.60;;;6.80;;
50709;SDS011;37033;49.994;21.992;2024-03-25T07:11:48;9.90;;;7.10;;
50709;SDS011;37033;49.994;21.992;2024-03-25T07:14:18;10.80;;;7.10;;
50709;SDS011;37033;49.994;21.992;2024-03-25T07:16:48;15.80;;;7.60;;
50709;SDS011;37033;49.994;21.992;2024-03-25T07:19:18;10.60;;;6.90;;
50709;SDS011;37033;49.994;21.992;2024-03-25T07:21:48;10.30;;;6.80;;
50709;SDS011;37033;49.994;21.992;2024-03-25T07:24:18;15.20;;;7.70;;
50709;SDS011;37033;49.994;21.992;2024-03-25T07:26:48;11.70;;;7.40;;
50709;SDS011;37033;49.994;21.992;2024-03-25T07:29:18;9.40;;;6.40;;
50709;SDS011;37033;49.994;21.992;2024-03-25T07:31:48;12.70;;;7.30;;
50709;SDS011;37033;49.994;21.992;2024-03-25T07:34:18;11.10;;;7.40;;
50709;SDS011;37033;49.994;21.992;2024-03-25T07:36:48;10.30;;;6.50;;
50709;SDS011;37033;49.994;21.992;2024-03-25T07:39:18;13.40;;;7.40;;
50709;SDS011;37033;49.994;21.992;2024-03-25T07:41:51;7.90;;;5.40;;
50709;SDS011;37033;49.994;21.992;2024-03-25T07:44:21;7.80;;;3.80;;
50709;SDS011;37033;49.994;21.992;2024-03-25T07:46:51;4.80;;;3.50;;
50709;SDS011;37033;49.994;21.992;2024-03-25T07:49:22;7.80;;;3.30;;
50709;SDS011;37033;49.994;21.992;2024-03-25T07:51:52;4.30;;;2.50;;
50709;SDS011;37033;49.994;21.992;2024-03-25T07:54:23;4.90;;;3.10;;
50709;SDS011;37033;49.994;21.992;2024-03-25T07:56:54;3.50;;;2.50;;
50709;SDS011;37033;49.994;21.992;2024-03-25T07:59:23;4.80;;;2.70;;
50709;SDS011;37033;49.994;21.992;2024-03-25T08:01:53;5.40;;;3.50;;
50709;SDS011;37033;49.994;21.992;2024-03-25T08:04:23;4.30;;;3.10;;
50709;SDS011;37033;49.994;21.992;2024-03-25T08:06:53;5.40;;;2.90;;
50709;SDS011;37033;49.994;21.992;2024-03-25T08:09:24;5.40;;;2.80;;
50709;SDS011;37033;49.994;21.992;2024-03-25T08:11:54;6.70;;;3.40;;
50709;SDS011;37033;49.994;21.992;2024-03-25T08:14:24;4.80;;;3.10;;
50709;SDS011;37033;49.994;21.992;2024-03-25T08:16:54;4.40;;;2.90;;
50709;SDS011;37033;49.994;21.992;2024-03-25T08:19:23;4.60;;;3.00;;
50709;SDS011;37033;49.994;21.992;2024-03-25T08:21:53;5.30;;;3.60;;
50709;SDS011;37033;49.994;21.992;2024-03-25T08:24:25;5.50;;;3.40;;
50709;SDS011;37033;49.994;21.992;2024-03-25T08:26:55;6.90;;;3.40;;
50709;SDS011;37033;49.994;21.992;2024-03-25T08:29:25;4.20;;;3.00;;
50709;SDS011;37033;49.994;21.992;2024-03-25T08:31:55;4.80;;;3.00;;
50709;SDS011;37033;49.994;21.992;2024-03-25T08:34:25;4.90;;;2.90;;
50709;SDS011;37033;49.994;21.992;2024-03-25T08:36:55;3.50;;;2.50;;
50709;SDS011;37033;49.994;21.992;2024-03-25T08:39:25;5.30;;;3.20;;
50709;SDS011;37033;49.994;21.992;2024-03-25T08:41:55;3.30;;;2.10;;
50709;SDS011;37033;49.994;21.992;2024-03-25T08:44:25;3.10;;;2.70;;
50709;SDS011;37033;49.994;21.992;2024-03-25T08:46:55;3.60;;;2.60;;
50709;SDS011;37033;49.994;21.992;2024-03-25T08:49:25;2.70;;;1.90;;
50709;SDS011;37033;49.994;21.992;2024-03-25T08:51:55;4.50;;;2.50;;
50709;SDS011;37033;49.994;21.992;2024-03-25T08:54:25;2.80;;;2.00;;
50709;SDS011;37033;49.994;21.992;2024-03-25T08:56:55;3.10;;;1.90;;
50709;SDS011;37033;49.994;21.992;2024-03-25T08:59:25;3.10;;;1.60;;
50709;SDS011;37033;49.994;21.992;2024-03-25T09:01:55;2.30;;;1.60;;
50709;SDS011;37033;49.994;21.992;2024-03-25T09:04:25;2.10;;;1.40;;
50709;SDS011;37033;49.994;21.992;2024-03-25T09:06:55;2.70;;;2.10;;
50709;SDS011;37033;49.994;21.992;2024-03-25T09:09:25;1.80;;;1.30;;
50709;SDS011;37033;49.994;21.992;2024-03-25T09:12:09;1.80;;;1.50;;
50709;SDS011;37033;49.994;21.992;2024-03-25T09:14:39;2.10;;;1.70;;
50709;SDS011;37033;49.994;21.992;2024-03-25T09:17:09;2.50;;;1.30;;
50709;SDS011;37033;49.994;21.992;2024-03-25T09:19:40;1.30;;;1.00;;
50709;SDS011;37033;49.994;21.992;2024-03-25T09:22:09;3.90;;;1.50;;
50709;SDS011;37033;49.994;21.992;2024-03-25T09:24:39;4.50;;;1.60;;
50709;SDS011;37033;49.994;21.992;2024-03-25T09:27:09;2.00;;;1.50;;
50709;SDS011;37033;49.994;21.992;2024-03-25T09:29:40;1.70;;;1.30;;
50709;SDS011;37033;49.994;21.992;2024-03-25T09:32:10;1.30;;;1.20;;
50709;SDS011;37033;49.994;21.992;2024-03-25T09:34:40;2.20;;;1.90;;
50709;SDS011;37033;49.994;21.992;2024-03-25T09:37:11;2.70;;;1.40;;
50709;SDS011;37033;49.994;21.992;2024-03-25T09:42:42;5.40;;;1.40;;
50709;SDS011;37033;49.994;21.992;2024-03-25T09:45:17;2.80;;;1.40;;
50709;SDS011;37033;49.994;21.992;2024-03-25T09:47:50;3.10;;;1.10;;
50709;SDS011;37033;49.994;21.992;2024-03-25T09:50:21;1.30;;;0.80;;
50709;SDS011;37033;49.994;21.992;2024-03-25T09:52:51;3.60;;;1.10;;
50709;SDS011;37033;49.994;21.992;2024-03-25T09:55:22;1.30;;;1.00;;
50709;SDS011;37033;49.994;21.992;2024-03-25T09:57:52;3.00;;;1.60;;
50709;SDS011;37033;49.994;21.992;2024-03-25T10:00:23;1.60;;;0.90;;
50709;SDS011;37033;49.994;21.992;2024-03-25T10:02:54;2.80;;;1.00;;
50709;SDS011;37033;49.994;21.992;2024-03-25T10:05:24;2.00;;;1.10;;
50709;SDS011;37033;49.994;21.992;2024-03-25T10:07:54;8.50;;;1.30;;
50709;SDS011;37033;49.994;21.992;2024-03-25T10:10:24;1.60;;;1.00;;
50709;SDS011;37033;49.994;21.992;2024-03-25T10:12:55;1.40;;;1.00;;
50709;SDS011;37033;49.994;21.992;2024-03-25T10:15:26;1.50;;;1.20;;
50709;SDS011;37033;49.994;21.992;2024-03-25T10:17:56;5.00;;;1.50;;
50709;SDS011;37033;49.994;21.992;2024-03-25T10:20:26;1.80;;;1.20;;
50709;SDS011;37033;49.994;21.992;2024-03-25T10:22:56;1.30;;;1.00;;
50709;SDS011;37033;49.994;21.992;2024-03-25T10:25:27;3.60;;;1.20;;
50709;SDS011;37033;49.994;21.992;2024-03-25T10:27:58;3.30;;;1.20;;
50709;SDS011;37033;49.994;21.992;2024-03-25T10:30:29;2.10;;;1.20;;
50709;SDS011;37033;49.994;21.992;2024-03-25T10:32:59;4.20;;;1.40;;
50709;SDS011;37033;49.994;21.992;2024-03-25T10:35:31;3.80;;;2.30;;
50709;SDS011;37033;49.994;21.992;2024-03-25T10:38:02;1.80;;;0.90;;
50709;SDS011;37033;49.994;21.992;2024-03-25T10:40:34;2.10;;;1.70;;
50709;SDS011;37033;49.994;21.992;2024-03-25T10:43:05;4.20;;;1.30;;
50709;SDS011;37033;49.994;21.992;2024-03-25T10:45:37;3.30;;;1.60;;
50709;SDS011;37033;49.994;21.992;2024-03-25T10:48:11;2.60;;;1.80;;
50709;SDS011;37033;49.994;21.992;2024-03-25T10:50:43;3.50;;;1.90;;
50709;SDS011;37033;49.994;21.992;2024-03-25T10:53:15;2.90;;;1.60;;
50709;SDS011;37033;49.994;21.992;2024-03-25T10:55:48;2.40;;;1.30;;
50709;SDS011;37033;49.994;21.992;2024-03-25T10:58:22;1.90;;;1.30;;
50709;SDS011;37033;49.994;21.992;2024-03-25T11:00:52;2.30;;;1.80;;
50709;SDS011;37033;49.994;21.992;2024-03-25T11:03:23;4.60;;;2.10;;
50709;SDS011;37033;49.994;21.992;2024-03-25T11:05:54;3.50;;;1.80;;
50709;SDS011;37033;49.994;21.992;2024-03-25T11:08:30;3.60;;;1.80;;
50709;SDS011;37033;49.994;21.992;2024-03-25T11:11:01;3.10;;;2.10;;
50709;SDS011;37033;49.994;21.992;2024-03-25T11:13:31;1.70;;;1.20;;
50709;SDS011;37033;49.994;21.992;2024-03-25T11:16:01;3.40;;;1.40;;
50709;SDS011;37033;49.994;21.992;2024-03-25T11:18:32;2.20;;;1.40;;
50709;SDS011;37033;49.994;21.992;2024-03-25T11:21:02;1.70;;;1.30;;
50709;SDS011;37033;49.994;21.992;2024-03-25T11:23:38;1.70;;;1.20;;
50709;SDS011;37033;49.994;21.992;2024-03-25T11:26:17;2.40;;;1.60;;
50709;SDS011;37033;49.994;21.992;2024-03-25T11:28:49;2.40;;;1.10;;
50709;SDS011;37033;49.994;21.992;2024-03-25T11:31:21;1.90;;;1.30;;
50709;SDS011;37033;49.994;21.992;2024-03-25T11:33:53;1.90;;;1.20;;
50709;SDS011;37033;49.994;21.992;2024-03-25T11:36:24;5.60;;;2.50;;
50709;SDS011;37033;49.994;21.992;2024-03-25T11:38:59;2.10;;;1.10;;
50709;SDS011;37033;49.994;21.992;2024-03-25T11:41:32;1.70;;;1.30;;
50709;SDS011;37033;49.994;21.992;2024-03-25T11:44:02;2.30;;;1.40;;
50709;SDS011;37033;49.994;21.992;2024-03-25T11:46:33;2.20;;;1.30;;
50709;SDS011;37033;49.994;21.992;2024-03-25T11:49:06;3.40;;;1.60;;
50709;SDS011;37033;49.994;21.992;2024-03-25T11:51:40;3.60;;;1.80;;
50709;SDS011;37033;49.994;21.992;2024-03-25T11:54:13;2.30;;;1.00;;
50709;SDS011;37033;49.994;21.992;2024-03-25T11:56:43;2.70;;;1.00;;
50709;SDS011;37033;49.994;21.992;2024-03-25T11:59:13;1.20;;;0.60;;
50709;SDS011;37033;49.994;21.992;2024-03-25T12:01:43;1.10;;;0.70;;
50709;SDS011;37033;49.994;21.992;2024-03-25T12:04:15;5.40;;;0.90;;
50709;SDS011;37033;49.994;21.992;2024-03-25T12:06:46;1.50;;;1.00;;
50709;SDS011;37033;49.994;21.992;2024-03-25T12:09:16;0.80;;;0.60;;
50709;SDS011;37033;49.994;21.992;2024-03-25T12:12:15;0.40;;;0.40;;
50709;SDS011;37033;49.994;21.992;2024-03-25T12:14:45;0.80;;;0.60;;
50709;SDS011;37033;49.994;21.992;2024-03-25T12:17:15;0.50;;;0.40;;
50709;SDS011;37033;49.994;21.992;2024-03-25T12:19:46;1.40;;;0.80;;
50709;SDS011;37033;49.994;21.992;2024-03-25T12:22:27;2.30;;;0.80;;
50709;SDS011;37033;49.994;21.992;2024-03-25T12:24:59;0.90;;;0.60;;
50709;SDS011;37033;49.994;21.992;2024-03-25T12:27:30;1.00;;;0.50;;
50709;SDS011;37033;49.994;21.992;2024-03-25T12:30:01;1.10;;;0.60;;
50709;SDS011;37033;49.994;21.992;2024-03-25T12:32:36;1.00;;;0.70;;
50709;SDS011;37033;49.994;21.992;2024-03-25T12:35:08;0.90;;;0.70;;
50709;SDS011;37033;49.994;21.992;2024-03-25T12:37:39;1.50;;;0.80;;
50709;SDS011;37033;49.994;21.992;2024-03-25T12:40:11;1.40;;;0.70;;
50709;SDS011;37033;49.994;21.992;2024-03-25T12:42:42;0.80;;;0.60;;
50709;SDS011;37033;49.994;21.992;2024-03-25T12:45:12;1.00;;;0.80;;
50709;SDS011;37033;49.994;21.992;2024-03-25T12:47:42;2.00;;;1.20;;
50709;SDS011;37033;49.994;21.992;2024-03-25T12:50:12;1.20;;;0.80;;
50709;SDS011;37033;49.994;21.992;2024-03-25T12:52:42;5.60;;;1.20;;
50709;SDS011;37033;49.994;21.992;2024-03-25T12:55:12;1.40;;;0.90;;
50709;SDS011;37033;49.994;21.992;2024-03-25T12:57:42;2.20;;;1.60;;
50709;SDS011;37033;49.994;21.992;2024-03-25T13:00:13;3.80;;;1.50;;
50709;SDS011;37033;49.994;21.992;2024-03-25T13:02:45;6.30;;;2.00;;
50709;SDS011;37033;49.994;21.992;2024-03-25T13:05:15;2.30;;;1.90;;
50709;SDS011;37033;49.994;21.992;2024-03-25T13:07:46;3.40;;;1.60;;
50709;SDS011;37033;49.994;21.992;2024-03-25T13:10:16;3.50;;;2.00;;
50709;SDS011;37033;49.994;21.992;2024-03-25T13:12:46;4.40;;;1.50;;
50709;SDS011;37033;49.994;21.992;2024-03-25T13:15:16;3.70;;;1.30;;
50709;SDS011;37033;49.994;21.992;2024-03-25T13:17:46;1.80;;;1.10;;
50709;SDS011;37033;49.994;21.992;2024-03-25T13:20:17;1.20;;;0.80;;
50709;SDS011;37033;49.994;21.992;2024-03-25T13:22:48;1.10;;;0.90;;
50709;SDS011;37033;49.994;21.992;2024-03-25T13:25:23;1.90;;;0.90;;
50709;SDS011;37033;49.994;21.992;2024-03-25T13:27:54;2.10;;;1.00;;
50709;SDS011;37033;49.994;21.992;2024-03-25T13:30:24;0.80;;;0.70;;
50709;SDS011;37033;49.994;21.992;2024-03-25T13:32:54;3.10;;;1.40;;
50709;SDS011;37033;49.994;21.992;2024-03-25T13:35:24;1.10;;;0.70;;
50709;SDS011;37033;49.994;21.992;2024-03-25T13:37:54;2.50;;;1.20;;
50709;SDS011;37033;49.994;21.992;2024-03-25T13:40:24;6.40;;;1.10;;
50709;SDS011;37033;49.994;21.992;2024-03-25T13:42:54;9.30;;;6.20;;
50709;SDS011;37033;49.994;21.992;2024-03-25T13:45:24;5.80;;;2.90;;
50709;SDS011;37033;49.994;21.992;2024-03-25T13:47:54;6.90;;;2.70;;
50709;SDS011;37033;49.994;21.992;2024-03-25T13:50:25;3.50;;;1.80;;
50709;SDS011;37033;49.994;21.992;2024-03-25T13:52:55;1.80;;;0.90;;
50709;SDS011;37033;49.994;21.992;2024-03-25T13:55:25;1.40;;;1.00;;
50709;SDS011;37033;49.994;21.992;2024-03-25T13:57:55;1.10;;;0.90;;
50709;SDS011;37033;49.994;21.992;2024-03-25T14:00:25;2.20;;;1.20;;
50709;SDS011;37033;49.994;21.992;2024-03-25T14:02:55;3.00;;;1.70;;
50709;SDS011;37033;49.994;21.992;2024-03-25T14:05:25;2.10;;;1.40;;
50709;SDS011;37033;49.994;21.992;2024-03-25T14:07:55;2.90;;;2.00;;
50709;SDS011;37033;49.994;21.992;2024-03-25T14:10:25;10.00;;;3.80;;
50709;SDS011;37033;49.994;21.992;2024-03-25T14:12:55;6.50;;;2.20;;
50709;SDS011;37033;49.994;21.992;2024-03-25T14:15:25;5.10;;;2.50;;
50709;SDS011;37033;49.994;21.992;2024-03-25T14:17:55;2.90;;;1.90;;
50709;SDS011;37033;49.994;21.992;2024-03-25T14:20:25;7.60;;;5.10;;
50709;SDS011;37033;49.994;21.992;2024-03-25T14:22:55;3.50;;;2.40;;
50709;SDS011;37033;49.994;21.992;2024-03-25T14:25:25;4.70;;;2.00;;
50709;SDS011;37033;49.994;21.992;2024-03-25T14:27:55;5.30;;;2.90;;
50709;SDS011;37033;49.994;21.992;2024-03-25T14:30:25;5.70;;;2.60;;
50709;SDS011;37033;49.994;21.992;2024-03-25T14:32:55;3.30;;;2.50;;
50709;SDS011;37033;49.994;21.992;2024-03-25T14:35:26;3.60;;;2.60;;
50709;SDS011;37033;49.994;21.992;2024-03-25T14:37:56;5.00;;;3.70;;
50709;SDS011;37033;49.994;21.992;2024-03-25T14:40:26;2.80;;;2.00;;
50709;SDS011;37033;49.994;21.992;2024-03-25T14:42:56;1.60;;;1.50;;
50709;SDS011;37033;49.994;21.992;2024-03-25T14:45:26;2.00;;;1.20;;